Monday, December 10, 2018, 10:37 PM EST
Back to Local

KEWB, New Bedford Regional Airport

Location: New Bedford, MA, United States Lat: 41.683
Local Time: 10:37 PM EST ( 3:37 GMT) Lon: -70.967
Time Zone: US/Eastern Elev: 78 ft

Show me the last for .
Show Coded

Time T Td Feel RH Dir Speed Gust Alt SLP Vis Weather Sky Remarks
2018-12-10 21:53 20 16 - 84 - Calm - 30.16 30.16 10 CLR None
2018-12-10 20:53 24 19 20 80 340° 3 - 30.15 30.15 10 CLR None
2018-12-10 19:53 22 20 - 91 - Calm - 30.15 30.15 10 CLR None
2018-12-10 18:53 23 20 - 87 - Calm - 30.13 30.13 10 CLR 6-hr Min Temp (7pm): 23.0°F
6-hr Max Temp (7pm): 39.9°F
2018-12-10 17:53 26 20 - 77 - Calm - 30.11 30.11 10 CLR None
2018-12-10 16:53 31 18 - 58 - Calm - 30.10 30.10 10 CLR None
2018-12-10 15:53 36 19 33 49 20° 3 - 30.09 30.09 10 CLR None
2018-12-10 14:53 38 20 33 47 Variable 7 - 30.07 30.07 10 CLR None
2018-12-10 13:53 39 21 33 48 350° 8 - 30.07 30.07 10 CLR None
2018-12-10 12:53 39 21 34 48 340° 7 - 30.06 30.06 10 CLR 6-hr Min Temp (1pm): 25.0°F
6-hr Max Temp (1pm): 39.9°F
2018-12-10 11:53 38 21 33 50 Variable 7 - 30.05 30.05 10 CLR None
2018-12-10 10:53 37 20 27 49 Variable 7 18 30.07 30.07 10 FEW035 None
2018-12-10 09:53 35 20 28 53 350° 9 - 30.09 30.09 10 CLR None
2018-12-10 08:53 30 20 24 65 Variable 6 - 30.08 30.08 10 CLR None
2018-12-10 07:53 27 19 23 71 Variable 3 - 30.06 30.06 10 CLR None
2018-12-10 06:53 25 18 19 74 340° 5 - 30.06 30.06 10 CLR 6-hr Min Temp (7am): 19.9°F
6-hr Max Temp (7am): 28.0°F
2018-12-10 05:53 25 17 21 71 320° 3 - 30.05 30.05 10 CLR None
2018-12-10 04:53 23 18 - 80 - Calm - 30.05 30.05 10 CLR None
2018-12-10 03:53 25 17 - 71 - Calm - 30.05 30.05 10 CLR None
2018-12-10 02:53 26 17 - 68 - Calm - 30.07 30.07 10 CLR None
2018-12-10 01:53 27 18 23 68 310° 3 - 30.09 30.09 10 CLR None
2018-12-10 00:53 25 20 - 80 - Calm - 30.10 30.10 10 CLR 6-hr Min Temp (1am): 25.0°F
6-hr Max Temp (1am): 30.9°F
2018-12-09 23:53 28 23 - 81 - Calm - 30.12 30.12 10 CLR 24-hr Min Temp (12am): 14.0°F
24-hr Max Temp (12am): 34.0°F
2018-12-09 22:53 31 24 25 75 250° 6 - 30.15 30.15 10 CLR None

Support USWX by starting your Amazon purchase here.